createdAt,value
2022-11-01T00:01:49.245Z,4.40
2022-11-01T00:04:17.324Z,4.67
2022-11-01T00:06:45.325Z,4.50
2022-11-01T00:09:14.007Z,4.57
2022-11-01T00:11:42.139Z,3.60
2022-11-01T00:14:15.482Z,4.67
2022-11-01T00:16:46.606Z,3.90
2022-11-01T00:19:14.993Z,4.43
2022-11-01T00:21:43.053Z,5.50
2022-11-01T00:24:11.129Z,5.77
2022-11-01T00:26:40.729Z,4.67
2022-11-01T00:29:21.214Z,4.50
2022-11-01T00:31:55.127Z,4.40
2022-11-01T00:34:23.236Z,4.70
2022-11-01T00:36:51.318Z,4.93
2022-11-01T00:39:19.490Z,4.23
2022-11-01T00:41:47.449Z,4.10
2022-11-01T00:44:17.898Z,4.73
2022-11-01T00:46:45.823Z,4.30
2022-11-01T00:49:28.671Z,5.10
2022-11-01T00:51:56.667Z,4.37
2022-11-01T00:54:24.724Z,4.50
2022-11-01T00:56:53.960Z,4.60
2022-11-01T00:59:23.519Z,3.77
2022-11-01T01:01:51.641Z,4.57
2022-11-01T01:04:30.474Z,4.00
2022-11-01T01:06:58.455Z,3.40
2022-11-01T01:09:26.408Z,4.43
2022-11-01T01:11:54.639Z,4.27
2022-11-01T01:14:26.495Z,4.30
2022-11-01T01:16:57.740Z,3.93
2022-11-01T01:19:30.009Z,4.77
2022-11-01T01:21:58.155Z,3.73
2022-11-01T01:24:26.487Z,4.20
2022-11-01T01:26:54.480Z,3.83
2022-11-01T01:29:23.835Z,4.17
2022-11-01T01:31:52.722Z,5.00
2022-11-01T01:34:20.980Z,4.60
2022-11-01T01:36:49.127Z,4.17
2022-11-01T01:39:23.819Z,4.13
2022-11-01T01:41:57.719Z,4.10
2022-11-01T01:45:15.174Z,4.27
2022-11-01T01:47:49.929Z,4.50
2022-11-01T01:50:23.271Z,4.17
2022-11-01T01:52:54.825Z,4.73
2022-11-01T01:55:27.942Z,4.90
2022-11-01T01:57:58.672Z,5.10
2022-11-01T02:00:28.310Z,5.13
2022-11-01T02:02:59.668Z,5.47
2022-11-01T02:05:37.767Z,4.43
2022-11-01T02:08:07.603Z,4.77
2022-11-01T02:10:36.282Z,4.67
2022-11-01T02:13:12.015Z,5.17
2022-11-01T02:15:55.765Z,4.90
2022-11-01T02:21:59.680Z,4.67
2022-11-01T02:24:46.305Z,5.00
2022-11-01T02:27:21.698Z,5.13
2022-11-01T02:30:09.990Z,4.73
2022-11-01T02:33:02.106Z,5.63
2022-11-01T02:35:41.075Z,4.73
2022-11-01T02:38:11.343Z,4.93
2022-11-01T02:40:46.365Z,4.80
2022-11-01T02:43:19.889Z,4.67
2022-11-01T02:45:50.937Z,4.63
2022-11-01T02:48:22.987Z,4.57
2022-11-01T02:50:56.778Z,4.50
2022-11-01T02:53:25.216Z,4.87
2022-11-01T02:55:53.617Z,4.53
2022-11-01T02:58:24.330Z,4.97
2022-11-01T03:00:52.733Z,4.57
2022-11-01T03:03:25.062Z,5.23
2022-11-01T03:06:03.858Z,3.87
2022-11-01T03:08:38.967Z,4.23
2022-11-01T03:11:11.527Z,4.40
2022-11-01T03:13:54.297Z,4.50
2022-11-01T03:16:29.510Z,4.60
2022-11-01T03:19:07.844Z,4.40
2022-11-01T03:21:41.922Z,4.53
2022-11-01T03:24:19.971Z,4.00
2022-11-01T03:26:55.591Z,4.40
2022-11-01T03:29:27.492Z,4.80
2022-11-01T03:31:57.104Z,5.00
2022-11-01T03:34:27.119Z,4.13
2022-11-01T03:37:01.531Z,3.90
2022-11-01T03:39:39.937Z,4.20
2022-11-01T03:42:11.380Z,4.67
2022-11-01T03:44:43.809Z,4.63
2022-11-01T03:47:13.370Z,5.40
2022-11-01T03:49:42.835Z,4.03
2022-11-01T03:52:11.042Z,4.57
2022-11-01T03:54:39.716Z,3.70
2022-11-01T03:57:08.449Z,4.47
2022-11-01T03:59:38.211Z,4.60
2022-11-01T04:02:06.722Z,4.13
2022-11-01T04:04:35.036Z,3.97
2022-11-01T04:07:05.893Z,4.60
2022-11-01T04:09:33.937Z,3.60
2022-11-01T04:12:02.570Z,3.80
2022-11-01T04:14:48.135Z,4.00
2022-11-01T04:17:33.717Z,3.53
2022-11-01T04:20:19.116Z,3.57
2022-11-01T04:22:49.309Z,3.60
2022-11-01T04:25:17.727Z,10.27
2022-11-01T04:27:46.629Z,3.33
2022-11-01T04:30:14.866Z,5.03
2022-11-01T04:32:44.318Z,3.60
2022-11-01T04:35:12.674Z,3.77
2022-11-01T04:37:40.848Z,4.23
2022-11-01T04:40:13.334Z,3.20
2022-11-01T04:42:42.032Z,3.70
2022-11-01T04:45:11.282Z,4.37
2022-11-01T04:47:39.304Z,3.83
2022-11-01T04:50:07.747Z,3.83
2022-11-01T04:52:35.770Z,3.83
2022-11-01T04:55:03.834Z,4.53
2022-11-01T04:57:38.842Z,3.50
2022-11-01T05:00:11.352Z,2.90
2022-11-01T05:02:40.798Z,4.07
2022-11-01T05:05:10.940Z,3.97
2022-11-01T05:07:39.388Z,3.33
2022-11-01T05:10:09.003Z,3.40
2022-11-01T05:12:38.798Z,3.67
2022-11-01T05:15:08.359Z,3.90
2022-11-01T05:17:36.390Z,4.17
2022-11-01T05:20:04.623Z,4.03
2022-11-01T05:22:32.773Z,3.40
2022-11-01T05:25:01.080Z,4.20
2022-11-01T05:27:29.296Z,4.10
2022-11-01T05:29:58.628Z,4.57
2022-11-01T05:32:27.180Z,4.13
2022-11-01T05:34:55.109Z,4.80
2022-11-01T05:37:27.151Z,5.80
2022-11-01T05:39:56.190Z,5.10
2022-11-01T05:42:25.237Z,5.00
2022-11-01T05:44:53.187Z,6.13
2022-11-01T05:47:22.749Z,6.67
2022-11-01T05:49:50.727Z,5.30
2022-11-01T05:52:18.798Z,8.53
2022-11-01T05:54:46.723Z,6.20
2022-11-01T05:57:15.097Z,5.80
2022-11-01T05:59:43.111Z,8.00
2022-11-01T06:02:11.220Z,7.67
2022-11-01T06:04:40.586Z,9.20
2022-11-01T06:07:08.566Z,6.47
2022-11-01T06:09:36.503Z,9.83
2022-11-01T06:12:05.643Z,9.67
2022-11-01T06:17:02.856Z,8.40
2022-11-01T06:19:30.814Z,9.70
2022-11-01T06:22:00.948Z,9.63
2022-11-01T06:24:28.975Z,8.53
2022-11-01T06:26:56.969Z,9.17
2022-11-01T06:29:25.307Z,9.17
2022-11-01T06:31:53.279Z,5.80
2022-11-01T06:34:23.045Z,6.93
2022-11-01T06:36:51.051Z,6.03
2022-11-01T06:39:20.411Z,7.27
2022-11-01T06:41:48.398Z,6.20
2022-11-01T06:44:16.378Z,6.40
2022-11-01T06:46:44.489Z,4.53
2022-11-01T06:49:17.957Z,5.13
2022-11-01T06:51:47.412Z,5.07
2022-11-01T06:54:15.606Z,5.17
2022-11-01T06:56:48.295Z,5.70
2022-11-01T06:59:17.755Z,4.03
2022-11-01T07:01:46.194Z,3.33
2022-11-01T07:04:14.388Z,2.80
2022-11-01T07:06:42.399Z,2.20
2022-11-01T07:09:10.611Z,2.80
2022-11-01T07:11:38.619Z,2.60
2022-11-01T07:14:08.023Z,2.30
2022-11-01T07:16:36.018Z,2.70
2022-11-01T07:19:04.021Z,2.47
2022-11-01T07:21:31.970Z,2.47
2022-11-01T07:23:59.965Z,2.43
2022-11-01T07:26:29.263Z,3.70
2022-11-01T07:28:57.803Z,2.47
2022-11-01T07:31:27.383Z,2.80
2022-11-01T07:33:55.386Z,3.10
2022-11-01T07:36:24.119Z,3.30
2022-11-01T07:38:52.170Z,3.00
2022-11-01T07:41:20.218Z,2.90
2022-11-01T07:43:48.236Z,2.63
2022-11-01T07:46:17.207Z,2.97
2022-11-01T07:48:46.554Z,3.30
2022-11-01T07:51:14.603Z,3.27
2022-11-01T07:53:42.559Z,1.90
2022-11-01T07:56:10.678Z,1.63
2022-11-01T07:58:38.687Z,2.20
2022-11-01T08:01:06.882Z,1.97
2022-11-01T08:03:35.046Z,3.00
2022-11-01T08:06:04.580Z,3.20
2022-11-01T08:08:32.623Z,2.23
2022-11-01T08:11:01.561Z,2.30
2022-11-01T08:13:30.029Z,1.97
2022-11-01T08:16:01.578Z,3.60
2022-11-01T08:18:29.782Z,3.60
2022-11-01T08:20:59.107Z,3.23
2022-11-01T08:23:28.731Z,2.87
2022-11-01T08:25:58.687Z,2.87
2022-11-01T08:28:28.579Z,2.97
2022-11-01T08:30:56.569Z,3.20
2022-11-01T08:33:24.654Z,2.83
2022-11-01T08:35:53.107Z,3.30
2022-11-01T08:38:21.095Z,4.00
2022-11-01T08:40:50.450Z,4.57
2022-11-01T08:43:18.770Z,3.97
2022-11-01T08:45:56.360Z,3.93
2022-11-01T08:48:24.394Z,4.13
2022-11-01T08:50:52.921Z,3.90
2022-11-01T08:53:21.467Z,4.43
2022-11-01T08:55:55.933Z,4.60
2022-11-01T08:58:24.082Z,4.03
2022-11-01T09:00:52.079Z,3.70
2022-11-01T09:03:20.102Z,4.90
2022-11-01T09:05:48.750Z,5.50
2022-11-01T09:08:16.812Z,3.40
2022-11-01T09:10:44.808Z,4.00
2022-11-01T09:13:14.179Z,3.27
2022-11-01T09:15:42.231Z,3.63
2022-11-01T09:18:10.718Z,3.40
2022-11-01T09:20:39.194Z,4.87
2022-11-01T09:23:07.377Z,3.70
2022-11-01T09:25:35.575Z,4.13
2022-11-01T09:28:03.772Z,3.77
2022-11-01T09:30:33.359Z,4.80
2022-11-01T09:33:05.424Z,4.53
2022-11-01T09:38:19.273Z,3.80
2022-11-01T09:40:51.424Z,3.90
2022-11-01T09:43:23.456Z,4.33
2022-11-01T09:45:54.932Z,3.53
2022-11-01T09:48:25.620Z,4.50
2022-11-01T09:51:00.957Z,4.50
2022-11-01T09:53:32.403Z,3.37
2022-11-01T09:56:10.295Z,3.63
2022-11-01T09:58:54.527Z,3.43
2022-11-01T10:01:41.446Z,3.30
2022-11-01T10:04:35.338Z,3.37
2022-11-01T10:07:10.629Z,4.13
2022-11-01T10:09:48.610Z,3.50
2022-11-01T10:12:36.655Z,3.47
2022-11-01T10:15:30.021Z,3.47
2022-11-01T10:18:05.313Z,3.80
2022-11-01T10:20:38.340Z,3.67
2022-11-01T10:23:07.009Z,3.27
2022-11-01T10:25:40.813Z,3.20
2022-11-01T10:28:17.096Z,2.90
2022-11-01T10:30:49.366Z,2.70
2022-11-01T10:33:27.170Z,3.23
2022-11-01T10:35:59.337Z,2.97
2022-11-01T10:39:10.308Z,3.40
2022-11-01T10:41:28.545Z,3.30
2022-11-01T10:43:59.364Z,3.57
2022-11-01T10:46:32.935Z,3.00
2022-11-01T10:49:06.408Z,2.63
2022-11-01T10:51:37.973Z,2.70
2022-11-01T10:54:16.245Z,3.07
2022-11-01T10:56:49.215Z,3.47
2022-11-01T10:59:20.101Z,2.93
2022-11-01T11:01:50.880Z,2.67
2022-11-01T11:04:23.549Z,3.00
2022-11-01T11:06:52.639Z,3.83
2022-11-01T11:09:28.662Z,3.57
2022-11-01T11:12:01.227Z,3.37
2022-11-01T11:14:33.062Z,3.47
2022-11-01T11:17:02.126Z,3.20
2022-11-01T11:19:38.500Z,2.90
2022-11-01T11:22:09.539Z,3.00
2022-11-01T11:24:39.532Z,3.53
2022-11-01T11:27:14.776Z,2.97
2022-11-01T11:29:49.311Z,3.07
2022-11-01T11:32:21.348Z,2.83
2022-11-01T11:34:58.440Z,2.70
2022-11-01T11:37:29.478Z,2.57
2022-11-01T11:40:07.046Z,3.33
2022-11-01T11:42:35.578Z,2.60
2022-11-01T11:45:18.670Z,2.87
2022-11-01T11:47:48.132Z,2.53
2022-11-01T11:50:35.171Z,2.37
2022-11-01T11:53:07.900Z,2.20
2022-11-01T11:55:42.437Z,2.80
2022-11-01T11:58:26.478Z,2.60
2022-11-01T12:01:01.006Z,2.50
2022-11-01T12:03:30.121Z,2.77
2022-11-01T12:06:03.190Z,2.67
2022-11-01T12:08:37.998Z,2.33
2022-11-01T12:11:06.651Z,2.80
2022-11-01T12:13:37.155Z,2.53
2022-11-01T12:16:16.169Z,2.33
2022-11-01T12:18:53.494Z,2.10
2022-11-01T12:21:32.277Z,2.27
2022-11-01T12:24:15.456Z,2.73
2022-11-01T12:26:45.496Z,2.20
2022-11-01T12:29:26.490Z,2.30
2022-11-01T12:31:56.545Z,2.37
2022-11-01T12:34:27.094Z,2.63
2022-11-01T12:37:02.035Z,2.40
2022-11-01T12:39:45.162Z,2.30
2022-11-01T12:42:19.930Z,2.20
2022-11-01T12:44:53.358Z,2.40
2022-11-01T12:47:26.362Z,3.07
2022-11-01T12:50:02.116Z,2.50
2022-11-01T12:52:41.144Z,2.50
2022-11-01T12:55:20.763Z,2.40
2022-11-01T12:57:50.044Z,2.30
2022-11-01T13:00:21.550Z,2.90
2022-11-01T13:03:08.998Z,2.10
2022-11-01T13:05:50.746Z,2.10
2022-11-01T13:08:32.210Z,2.50
2022-11-01T13:11:10.075Z,2.30
2022-11-01T13:13:46.557Z,2.80
2022-11-01T13:16:20.466Z,2.47
2022-11-01T13:18:53.263Z,2.53
2022-11-01T13:21:34.378Z,2.70
2022-11-01T13:24:26.252Z,2.90
2022-11-01T13:27:00.177Z,3.17
2022-11-01T13:29:39.559Z,4.17
2022-11-01T13:32:13.781Z,3.70
2022-11-01T13:34:51.008Z,3.73
2022-11-01T13:37:32.826Z,4.30
2022-11-01T13:40:18.523Z,3.50
2022-11-01T13:42:51.505Z,3.60
2022-11-01T13:45:50.187Z,3.90
2022-11-01T13:48:39.117Z,3.30
2022-11-01T13:51:33.786Z,3.80
2022-11-01T13:54:07.628Z,3.77
2022-11-01T13:56:41.513Z,3.13
2022-11-01T13:59:16.808Z,3.10
2022-11-01T14:01:45.089Z,3.10
2022-11-01T14:04:40.241Z,2.80
2022-11-01T14:07:17.776Z,2.60
2022-11-01T14:09:47.676Z,2.33
2022-11-01T14:12:36.051Z,2.60
2022-11-01T14:15:24.924Z,2.80
2022-11-01T14:18:03.818Z,2.73
2022-11-01T14:20:41.410Z,2.63
2022-11-01T14:23:54.901Z,2.80
2022-11-01T14:26:49.788Z,3.13
2022-11-01T14:29:36.642Z,3.00
2022-11-01T14:32:05.243Z,2.70
2022-11-01T14:34:37.115Z,2.60
2022-11-01T14:37:22.362Z,2.80
2022-11-01T14:40:01.998Z,2.80
2022-11-01T14:42:41.479Z,2.70
2022-11-01T14:45:29.041Z,3.40
2022-11-01T14:48:01.770Z,3.50
2022-11-01T14:50:45.021Z,3.50
2022-11-01T14:53:23.721Z,3.13
2022-11-01T14:55:52.138Z,2.97
2022-11-01T14:58:23.175Z,3.80
2022-11-01T15:00:55.292Z,3.60
2022-11-01T15:03:24.442Z,3.03
2022-11-01T15:05:54.652Z,3.63
2022-11-01T15:08:34.006Z,3.27
2022-11-01T15:11:04.569Z,3.37
2022-11-01T15:13:38.496Z,2.93
2022-11-01T15:16:15.267Z,3.30
2022-11-01T15:18:48.568Z,2.90
2022-11-01T15:21:31.071Z,3.37
2022-11-01T15:24:03.834Z,2.90
2022-11-01T15:26:34.256Z,3.33
2022-11-01T15:29:05.617Z,2.90
2022-11-01T15:31:50.384Z,3.50
2022-11-01T15:34:24.013Z,2.97
2022-11-01T15:36:52.244Z,3.13
2022-11-01T15:39:29.062Z,3.13
2022-11-01T15:41:58.008Z,2.90
2022-11-01T15:44:28.840Z,2.77
2022-11-01T15:47:00.698Z,3.13
2022-11-01T15:49:33.518Z,3.00
2022-11-01T15:52:05.476Z,2.63
2022-11-01T15:54:41.252Z,3.27
2022-11-01T15:57:12.581Z,2.80
2022-11-01T15:59:50.584Z,2.90
2022-11-01T16:02:43.376Z,2.80
2022-11-01T16:05:17.320Z,2.53
2022-11-01T16:07:46.120Z,2.80
2022-11-01T16:10:27.243Z,2.70
2022-11-01T16:12:56.235Z,2.77
2022-11-01T16:15:27.307Z,2.77
2022-11-01T16:18:00.160Z,2.83
2022-11-01T16:20:35.175Z,2.93
2022-11-01T16:23:07.253Z,2.87
2022-11-01T16:25:37.436Z,3.77
2022-11-01T16:28:28.478Z,2.93
2022-11-01T16:30:57.941Z,2.63
2022-11-01T16:33:45.342Z,3.40
2022-11-01T16:36:36.796Z,3.00
2022-11-01T16:39:26.984Z,2.60
2022-11-01T16:41:55.152Z,3.20
2022-11-01T16:44:23.455Z,2.60
2022-11-01T16:46:52.110Z,2.70
2022-11-01T16:49:24.041Z,2.90
2022-11-01T16:51:54.628Z,3.20
2022-11-01T16:54:22.779Z,2.67
2022-11-01T16:56:53.324Z,2.87
2022-11-01T16:59:28.926Z,3.23
2022-11-01T17:01:58.831Z,3.30
2022-11-01T17:04:31.877Z,2.67
2022-11-01T17:06:59.807Z,3.37
2022-11-01T17:09:30.777Z,2.90
2022-11-01T17:12:01.788Z,3.30
2022-11-01T17:17:17.084Z,3.23
2022-11-01T17:19:50.355Z,3.07
2022-11-01T17:22:21.329Z,2.90
2022-11-01T17:24:49.640Z,3.03
2022-11-01T17:27:26.093Z,2.90
2022-11-01T17:29:54.138Z,2.77
2022-11-01T17:32:22.148Z,2.80
2022-11-01T17:34:51.489Z,2.70
2022-11-01T17:37:19.527Z,3.00
2022-11-01T17:39:47.560Z,3.13
2022-11-01T17:42:15.562Z,3.60
2022-11-01T17:44:43.543Z,2.70
2022-11-01T17:47:15.645Z,2.90
2022-11-01T17:49:43.786Z,2.80
2022-11-01T17:52:13.694Z,3.27
2022-11-01T17:54:41.777Z,3.50
2022-11-01T17:57:09.723Z,3.20
2022-11-01T17:59:37.754Z,3.43
2022-11-01T18:02:05.857Z,2.93
2022-11-01T18:04:35.780Z,2.80
2022-11-01T18:07:07.992Z,3.07
2022-11-01T18:09:37.943Z,2.50
2022-11-01T18:12:13.749Z,3.60
2022-11-01T18:15:08.945Z,2.63
2022-11-01T18:17:49.010Z,3.10
2022-11-01T18:20:31.737Z,2.93
2022-11-01T18:23:05.046Z,3.03
2022-11-01T18:25:40.560Z,2.80
2022-11-01T18:28:14.319Z,2.80
2022-11-01T18:30:43.069Z,2.90
2022-11-01T18:33:19.847Z,2.90
2022-11-01T18:36:16.709Z,2.80
2022-11-01T18:38:50.291Z,2.60
2022-11-01T18:41:22.189Z,2.77
2022-11-01T18:43:56.827Z,2.50
2022-11-01T18:46:27.484Z,2.73
2022-11-01T18:49:00.067Z,2.67
2022-11-01T18:51:30.232Z,2.73
2022-11-01T18:54:13.518Z,2.40
2022-11-01T18:56:51.087Z,2.70
2022-11-01T18:59:27.575Z,2.90
2022-11-01T19:02:00.418Z,2.67
2022-11-01T19:04:32.157Z,2.53
2022-11-01T19:07:09.756Z,2.77
2022-11-01T19:09:40.471Z,2.60
2022-11-01T19:12:16.698Z,2.47
2022-11-01T19:14:46.335Z,2.80
2022-11-01T19:17:23.791Z,2.97
2022-11-01T19:19:52.700Z,3.00
2022-11-01T19:22:33.025Z,3.00
2022-11-01T19:25:02.978Z,2.70
2022-11-01T19:27:32.340Z,3.00
2022-11-01T19:30:00.978Z,3.20
2022-11-01T19:32:29.253Z,3.70
2022-11-01T19:34:57.448Z,3.30
2022-11-01T19:37:33.077Z,2.97
2022-11-01T19:40:13.580Z,3.33
2022-11-01T19:42:43.993Z,3.23
2022-11-01T19:45:29.015Z,3.50
2022-11-01T19:47:58.063Z,3.03
2022-11-01T19:50:32.611Z,3.40
2022-11-01T19:53:00.692Z,3.23
2022-11-01T19:55:52.107Z,3.80
2022-11-01T19:58:26.905Z,3.60
2022-11-01T20:01:14.926Z,3.27
2022-11-01T20:03:46.091Z,3.73
2022-11-01T20:06:17.088Z,3.53
2022-11-01T20:08:46.375Z,3.57
2022-11-01T20:11:14.370Z,3.77
2022-11-01T20:13:43.798Z,3.33
2022-11-01T20:16:12.543Z,3.30
2022-11-01T20:18:41.234Z,3.40
2022-11-01T20:21:09.522Z,3.10
2022-11-01T20:23:39.050Z,3.30
2022-11-01T20:26:07.136Z,3.13
2022-11-01T20:28:35.500Z,3.27
2022-11-01T20:31:05.339Z,3.27
2022-11-01T20:33:48.246Z,3.20
2022-11-01T20:36:16.440Z,3.30
2022-11-01T20:38:44.723Z,3.77
2022-11-01T20:41:13.077Z,3.40
2022-11-01T20:43:42.323Z,3.27
2022-11-01T20:46:11.802Z,3.67
2022-11-01T20:48:39.911Z,3.63
2022-11-01T20:51:08.165Z,3.60
2022-11-01T20:53:36.259Z,3.80
2022-11-01T20:56:06.554Z,3.50
2022-11-01T20:58:39.913Z,4.07
2022-11-01T21:01:15.754Z,3.70
2022-11-01T21:03:44.549Z,3.83
2022-11-01T21:06:19.601Z,4.00
2022-11-01T21:08:49.052Z,3.53
2022-11-01T21:11:43.965Z,4.23
2022-11-01T21:14:16.759Z,3.53
2022-11-01T21:16:46.428Z,3.43
2022-11-01T21:19:20.772Z,3.10
2022-11-01T21:21:52.431Z,3.47
2022-11-01T21:24:35.167Z,3.50
2022-11-01T21:27:24.274Z,3.40
2022-11-01T21:29:53.076Z,3.60
2022-11-01T21:32:30.191Z,3.90
2022-11-01T21:34:59.083Z,3.40
2022-11-01T21:37:29.814Z,3.10
2022-11-01T21:40:15.010Z,3.87
2022-11-01T21:42:46.671Z,3.00
2022-11-01T21:45:31.214Z,3.50
2022-11-01T21:48:03.902Z,3.57
2022-11-01T21:50:32.189Z,4.20
2022-11-01T21:53:00.412Z,3.53
2022-11-01T21:55:29.030Z,3.77
2022-11-01T21:57:57.455Z,3.70
2022-11-01T22:00:25.592Z,3.37
2022-11-01T22:02:53.527Z,3.10
2022-11-01T22:05:23.930Z,3.37
2022-11-01T22:07:51.953Z,3.43
2022-11-01T22:10:19.966Z,3.40
2022-11-01T22:12:47.994Z,3.20
2022-11-01T22:15:16.120Z,2.93
2022-11-01T22:17:44.059Z,3.53
2022-11-01T22:20:12.691Z,3.67
2022-11-01T22:22:42.129Z,3.07
2022-11-01T22:25:11.656Z,3.33
2022-11-01T22:27:42.744Z,3.40
2022-11-01T22:30:12.103Z,4.10
2022-11-01T22:32:40.066Z,3.37
2022-11-01T22:35:08.550Z,3.40
2022-11-01T22:37:37.122Z,3.60
2022-11-01T22:40:12.734Z,4.10
2022-11-01T22:42:41.816Z,3.50
2022-11-01T22:45:15.879Z,3.67
2022-11-01T22:47:44.207Z,3.50
2022-11-01T22:50:14.739Z,3.07
2022-11-01T22:52:45.193Z,3.23
2022-11-01T22:55:24.398Z,3.50
2022-11-01T22:57:56.501Z,3.40
2022-11-01T23:00:30.983Z,3.00
2022-11-01T23:03:12.154Z,3.57
2022-11-01T23:05:40.137Z,3.73
2022-11-01T23:08:19.272Z,3.53
2022-11-01T23:10:52.060Z,3.63
2022-11-01T23:13:43.118Z,3.47
2022-11-01T23:16:24.079Z,3.47
2022-11-01T23:18:53.234Z,3.80
2022-11-01T23:21:23.073Z,3.90
2022-11-01T23:23:51.278Z,4.17
2022-11-01T23:26:21.193Z,3.73
2022-11-01T23:28:52.669Z,4.03
2022-11-01T23:31:22.036Z,3.70
2022-11-01T23:33:51.313Z,4.03
2022-11-01T23:36:24.006Z,3.30
2022-11-01T23:38:55.533Z,4.37
2022-11-01T23:41:29.422Z,3.67
2022-11-01T23:44:00.179Z,4.00
2022-11-01T23:46:28.487Z,4.00
2022-11-01T23:49:01.544Z,3.67
2022-11-01T23:51:32.290Z,4.20
2022-11-01T23:54:01.176Z,3.93
2022-11-01T23:56:31.860Z,3.90
2022-11-01T23:59:04.088Z,3.70
